createdAt,value
2016-03-24T16:04:06.139Z,884
2016-03-24T16:05:06.157Z,896
2016-03-24T16:06:06.082Z,908
2016-03-24T16:07:06.271Z,924
2016-03-24T16:08:06.290Z,928
2016-03-24T16:09:06.048Z,900
2016-03-24T16:10:06.051Z,876
2016-03-24T16:11:06.506Z,864
2016-03-24T16:12:06.087Z,864
2016-03-24T16:13:06.340Z,876
2016-03-24T16:14:06.280Z,876
2016-03-24T16:15:05.751Z,872
2016-03-24T16:16:06.488Z,856
2016-03-24T16:17:05.694Z,820
2016-03-24T16:18:05.525Z,796
2016-03-24T16:19:05.496Z,776
2016-03-24T16:20:06.390Z,760
2016-03-24T16:21:05.611Z,760
2016-03-24T16:22:06.098Z,764
2016-03-24T16:23:05.788Z,752
2016-03-24T16:24:05.884Z,744
2016-03-24T16:25:05.278Z,724
2016-03-24T16:26:05.297Z,716
2016-03-24T16:28:05.849Z,696
2016-03-24T16:29:05.305Z,680
2016-03-24T16:30:05.307Z,668
2016-03-24T16:31:05.263Z,660
2016-03-24T16:32:04.672Z,652
2016-03-24T16:33:06.330Z,632
2016-03-24T16:34:05.849Z,620
2016-03-24T16:35:05.211Z,604
2016-03-24T16:36:05.245Z,592
2016-03-24T16:37:05.123Z,588
2016-03-24T16:38:05.235Z,572
2016-03-24T16:39:05.035Z,560
2016-03-24T16:40:19.132Z,556
2016-03-24T16:41:05.634Z,548
2016-03-24T16:42:04.901Z,544
2016-03-24T16:43:05.420Z,540
2016-03-24T16:44:05.173Z,532
2016-03-24T16:45:04.910Z,528
2016-03-24T16:46:05.319Z,524
2016-03-24T16:47:17.821Z,516
2016-03-24T16:48:05.777Z,504
2016-03-24T16:49:05.155Z,484
2016-03-24T16:50:04.971Z,464
2016-03-24T16:51:04.645Z,460
2016-03-24T16:52:04.788Z,448
2016-03-24T16:53:18.556Z,448
2016-03-24T16:54:04.793Z,444
2016-03-24T16:55:04.875Z,452
2016-03-24T16:56:32.221Z,448
2016-03-24T16:57:04.723Z,444
2016-03-24T16:58:04.555Z,428
2016-03-24T16:59:03.494Z,404
2016-03-24T17:00:04.622Z,384
2016-03-24T17:01:04.391Z,360
2016-03-24T17:02:04.441Z,336
2016-03-24T17:03:04.411Z,316
2016-03-24T17:04:04.741Z,308
2016-03-24T17:05:18.167Z,296
2016-03-24T17:06:04.201Z,288
2016-03-24T17:07:04.329Z,288
2016-03-24T17:08:04.267Z,280
2016-03-24T17:09:07.317Z,272
2016-03-24T17:10:04.679Z,268
2016-03-24T17:11:04.198Z,264
2016-03-24T17:12:05.184Z,256
2016-03-24T17:13:04.203Z,256
2016-03-24T17:14:04.300Z,248
2016-03-24T17:15:04.193Z,240
2016-03-24T17:16:04.102Z,236
2016-03-24T17:17:03.948Z,228
2016-03-24T17:18:07.138Z,216
2016-03-24T17:19:04.453Z,200
2016-03-24T17:20:04.363Z,188
2016-03-24T17:21:04.147Z,176
2016-03-24T17:22:03.977Z,164
2016-03-24T17:23:03.949Z,152
2016-03-24T17:24:04.124Z,140
2016-03-24T17:25:04.219Z,132
2016-03-24T17:26:03.816Z,124
2016-03-24T17:27:03.850Z,116
2016-03-24T17:28:04.243Z,112
2016-03-24T17:29:03.933Z,104
2016-03-24T17:30:04.093Z,96
2016-03-24T17:31:03.782Z,92
2016-03-24T17:32:03.988Z,88
2016-03-24T17:33:03.694Z,84
2016-03-24T17:34:04.025Z,80
2016-03-24T17:35:03.824Z,72
2016-03-24T17:36:03.781Z,72
2016-03-24T17:37:03.720Z,68
2016-03-24T17:38:03.301Z,60
2016-03-24T17:39:03.523Z,56
2016-03-24T17:40:04.135Z,56
2016-03-24T17:41:17.413Z,48
2016-03-24T17:42:03.746Z,48
2016-03-24T17:43:03.659Z,44
2016-03-24T17:44:03.524Z,40
2016-03-24T17:45:03.281Z,36
2016-03-24T17:46:03.775Z,32
2016-03-24T17:47:03.414Z,28
2016-03-24T17:48:03.177Z,28
2016-03-24T17:49:03.160Z,28
2016-03-24T17:50:03.251Z,24
2016-03-24T17:51:03.094Z,24
2016-03-24T17:52:03.315Z,20
2016-03-24T17:53:03.535Z,20
2016-03-24T17:54:03.035Z,20
2016-03-24T17:55:03.240Z,16
2016-03-24T17:56:02.992Z,16
2016-03-24T17:57:03.025Z,16
2016-03-24T17:58:03.246Z,8
2016-03-24T17:59:02.951Z,8
2016-03-24T18:00:03.281Z,12
2016-03-24T18:01:03.033Z,8
2016-03-24T18:02:02.942Z,8
2016-03-24T18:03:02.913Z,4
2016-03-24T18:04:02.806Z,8
2016-03-24T18:05:03.278Z,4
2016-03-24T18:06:02.766Z,0
2016-03-24T18:07:02.658Z,4
2016-03-24T18:08:02.755Z,4
2016-03-24T18:09:02.633Z,0
2016-03-24T18:10:02.744Z,0
2016-03-24T18:11:02.904Z,0
2016-03-24T18:12:02.640Z,0
2016-03-24T18:13:02.894Z,0
2016-03-24T18:14:02.724Z,0
2016-03-24T18:15:02.789Z,0
2016-03-24T18:16:02.933Z,0
2016-03-24T18:17:02.529Z,0
2016-03-24T18:18:02.640Z,0
2016-03-24T18:19:02.643Z,0
2016-03-24T18:20:02.537Z,0
2016-03-24T18:21:02.320Z,0
2016-03-24T18:22:03.026Z,0
2016-03-24T18:23:02.529Z,0
2016-03-24T18:24:02.860Z,0
2016-03-24T18:25:02.785Z,0
2016-03-24T18:26:02.241Z,0
2016-03-24T18:27:02.259Z,0
2016-03-24T18:28:02.620Z,0
2016-03-24T18:29:02.234Z,0
2016-03-24T18:30:02.220Z,0
2016-03-24T18:31:02.378Z,0
2016-03-24T18:32:02.710Z,0
2016-03-24T18:33:03.073Z,0
2016-03-24T18:34:02.481Z,0
2016-03-24T18:35:01.468Z,0
2016-03-24T18:36:06.252Z,0
2016-03-24T18:37:03.224Z,0
2016-03-24T18:38:02.507Z,0
2016-03-24T18:39:02.072Z,0
2016-03-24T18:40:02.528Z,0
2016-03-24T18:41:02.000Z,0
2016-03-24T18:42:02.158Z,0
2016-03-24T18:43:03.974Z,0
2016-03-24T18:45:02.261Z,0
2016-03-24T18:46:03.044Z,0
2016-03-24T18:47:01.704Z,0
2016-03-24T18:48:01.707Z,0
2016-03-24T18:49:02.412Z,0
2016-03-24T18:50:02.477Z,0
2016-03-24T18:51:01.604Z,0
2016-03-24T18:52:01.685Z,0
2016-03-24T18:53:01.595Z,0
2016-03-24T18:54:01.723Z,0
2016-03-24T18:55:01.523Z,0
2016-03-24T18:56:02.509Z,0
2016-03-24T18:57:01.434Z,0
2016-03-24T18:58:01.842Z,0
2016-03-24T18:59:04.454Z,0
2016-03-24T19:00:01.567Z,0
2016-03-24T19:01:01.335Z,0
2016-03-24T19:02:01.432Z,0
2016-03-24T19:03:01.434Z,0
2016-03-24T19:04:02.093Z,0
2016-03-24T19:05:01.314Z,0
2016-03-24T19:06:02.177Z,0
2016-03-24T19:07:01.225Z,0
2016-03-24T19:08:01.182Z,0
2016-03-24T19:09:01.169Z,0
2016-03-24T19:10:01.577Z,0
2016-03-24T19:11:01.597Z,0
2016-03-24T19:12:01.239Z,0
2016-03-24T19:13:00.476Z,0
2016-03-24T19:14:01.261Z,0
2016-03-24T19:16:01.063Z,0
2016-03-24T19:17:00.971Z,0
2016-03-24T19:18:01.427Z,0
2016-03-24T19:19:01.415Z,0
2016-03-24T19:20:00.948Z,0
2016-03-24T19:21:01.029Z,0
2016-03-24T19:22:06.079Z,0
2016-03-24T19:23:01.254Z,0
2016-03-24T19:24:14.912Z,0
2016-03-24T19:25:01.853Z,0
2016-03-24T19:26:00.969Z,0
2016-03-24T19:27:01.330Z,0
2016-03-24T19:28:01.021Z,0
2016-03-24T19:29:01.007Z,0
2016-03-24T19:30:01.011Z,0
2016-03-24T19:31:00.701Z,0
2016-03-24T19:32:00.562Z,0
2016-03-24T19:33:02.738Z,0
2016-03-24T19:34:00.599Z,0
2016-03-24T19:35:00.492Z,0
2016-03-24T19:36:00.730Z,0
2016-03-24T19:37:00.561Z,0
2016-03-24T19:38:00.782Z,0
2016-03-24T19:39:00.612Z,0
2016-03-24T19:40:00.975Z,0
2016-03-24T19:41:00.696Z,0
2016-03-24T19:42:01.933Z,0
2016-03-24T19:43:01.451Z,0
2016-03-24T19:44:00.658Z,0
2016-03-24T19:45:00.473Z,0
2016-03-24T19:46:00.678Z,0
2016-03-24T19:47:06.244Z,0
2016-03-24T19:48:00.481Z,0
2016-03-24T19:49:00.592Z,0
2016-03-24T19:50:00.424Z,0
2016-03-24T19:51:01.192Z,0
2016-03-24T19:52:01.039Z,0
2016-03-24T19:53:00.432Z,0
2016-03-24T19:54:00.027Z,0
2016-03-24T19:55:00.375Z,0
2016-03-24T19:56:00.127Z,0
2016-03-24T19:57:00.957Z,0
2016-03-24T19:58:00.352Z,0
2016-03-24T19:58:59.885Z,0
2016-03-24T20:00:31.513Z,0
2016-03-24T20:00:59.046Z,0
2016-03-24T20:01:59.863Z,0
2016-03-24T20:03:00.974Z,0
2016-03-24T20:04:00.400Z,0
2016-03-24T20:05:03.184Z,0
2016-03-24T20:05:59.827Z,0
2016-03-24T20:07:00.752Z,0
2016-03-24T20:08:00.019Z,0
2016-03-24T20:08:59.663Z,0
2016-03-24T20:09:59.947Z,0
2016-03-24T20:11:01.137Z,0
2016-03-24T20:12:01.469Z,0
2016-03-24T20:13:00.674Z,0
2016-03-24T20:14:00.129Z,0
2016-03-24T20:15:00.946Z,0
2016-03-24T20:16:00.541Z,0
2016-03-24T20:16:59.481Z,0
2016-03-24T20:17:59.610Z,0
2016-03-24T20:19:00.035Z,0
2016-03-24T20:20:00.427Z,0
2016-03-24T20:21:00.523Z,0
2016-03-24T20:21:59.855Z,0
2016-03-24T20:22:59.373Z,0
2016-03-24T20:24:00.125Z,0
2016-03-24T20:24:59.300Z,0
2016-03-24T20:26:01.381Z,0
2016-03-24T20:26:59.337Z,0
2016-03-24T20:27:59.667Z,0
2016-03-24T20:28:59.389Z,0
2016-03-24T20:29:59.156Z,0
2016-03-24T20:30:59.534Z,0
2016-03-24T20:31:59.178Z,0
2016-03-24T20:32:59.087Z,0
2016-03-24T20:33:59.361Z,0
2016-03-24T20:34:58.973Z,0
2016-03-24T20:35:59.179Z,0
2016-03-24T20:36:59.119Z,0
2016-03-24T20:37:59.872Z,0
2016-03-24T20:38:58.937Z,0
2016-03-24T20:39:59.690Z,0
2016-03-24T20:40:59.083Z,0
2016-03-24T20:41:58.508Z,0
2016-03-24T20:42:59.073Z,0
2016-03-24T20:43:58.825Z,0
2016-03-24T20:44:58.985Z,0
2016-03-24T20:45:59.238Z,0
2016-03-24T20:46:59.037Z,0
2016-03-24T20:47:58.930Z,0
2016-03-24T20:48:58.963Z,0
2016-03-24T20:49:59.170Z,0
2016-03-24T20:50:58.876Z,0
2016-03-24T20:51:59.143Z,0
2016-03-24T20:52:58.975Z,0
2016-03-24T20:53:59.243Z,0
2016-03-24T20:54:59.105Z,0
2016-03-24T20:55:59.468Z,0
2016-03-24T20:56:58.923Z,0
2016-03-24T20:57:59.145Z,0
2016-03-24T20:58:59.304Z,0
2016-03-24T20:59:59.134Z,0
2016-03-24T21:01:02.262Z,0
2016-03-24T21:01:58.827Z,0
2016-03-24T21:02:58.549Z,0
2016-03-24T21:03:59.692Z,0
2016-03-24T21:04:58.616Z,0
2016-03-24T21:05:59.120Z,0
2016-03-24T21:06:58.762Z,0
2016-03-24T21:07:58.442Z,0
2016-03-24T21:08:58.304Z,0
2016-03-24T21:09:58.510Z,0
2016-03-24T21:10:58.263Z,0
2016-03-24T21:11:59.172Z,0
2016-03-24T21:12:58.080Z,0
2016-03-24T21:13:58.224Z,0
2016-03-24T21:14:58.824Z,0
2016-03-24T21:15:58.813Z,0
2016-03-24T21:16:58.112Z,0
2016-03-24T21:17:58.660Z,0
2016-03-24T21:18:58.039Z,0
2016-03-24T21:19:58.057Z,0
2016-03-24T21:20:58.326Z,0
2016-03-24T21:21:59.391Z,0
2016-03-24T21:22:57.846Z,0
2016-03-24T21:23:57.974Z,0
2016-03-24T21:24:58.212Z,0
2016-03-24T21:25:58.417Z,0
2016-03-24T21:26:57.982Z,0
2016-03-24T21:27:58.187Z,0
2016-03-24T21:28:58.113Z,0
2016-03-24T21:29:58.773Z,0
2016-03-24T21:30:58.009Z,0
2016-03-24T21:31:58.762Z,0
2016-03-24T21:32:57.890Z,0
2016-03-24T21:33:57.908Z,0
2016-03-24T21:34:57.537Z,0
2016-03-24T21:35:57.507Z,0
2016-03-24T21:36:57.338Z,0
2016-03-24T21:37:57.638Z,0
2016-03-24T21:38:58.031Z,0
2016-03-24T21:39:57.706Z,0
2016-03-24T21:41:58.070Z,0
2016-03-24T21:42:59.136Z,0
2016-03-24T21:43:57.403Z,0
2016-03-24T21:44:57.985Z,0
2016-03-24T21:45:57.534Z,0
2016-03-24T21:46:57.271Z,0
2016-03-24T21:47:57.290Z,0
2016-03-24T21:48:57.480Z,0
2016-03-24T21:49:57.419Z,0
2016-03-24T21:50:57.173Z,0
2016-03-24T21:51:57.613Z,0
2016-03-24T21:52:57.616Z,0
2016-03-24T21:53:57.353Z,0
2016-03-24T21:55:10.949Z,0
2016-03-24T21:55:57.186Z,0
2016-03-24T21:56:56.955Z,0
2016-03-24T21:57:57.816Z,0
2016-03-24T21:59:11.917Z,0
2016-03-24T21:59:58.903Z,0
2016-03-24T22:00:56.626Z,0
2016-03-24T22:01:58.925Z,0
2016-03-24T22:02:57.568Z,0
2016-03-24T22:03:57.993Z,0
2016-03-24T22:04:56.964Z,0
2016-03-24T22:05:57.530Z,0
2016-03-24T22:06:59.251Z,0
2016-03-24T22:08:12.644Z,0
2016-03-24T22:09:00.725Z,0
2016-03-24T22:10:12.306Z,0
2016-03-24T22:10:58.886Z,0
2016-03-24T22:11:57.077Z,0
2016-03-24T22:12:58.751Z,0
2016-03-24T22:14:11.302Z,0
2016-03-24T22:14:57.272Z,0
2016-03-24T22:15:57.087Z,0
2016-03-24T22:17:10.481Z,0
2016-03-24T22:17:59.265Z,0
2016-03-24T22:18:57.189Z,0
2016-03-24T22:19:57.505Z,0
2016-03-24T22:21:11.867Z,0
2016-03-24T22:21:57.791Z,0
2016-03-24T22:22:58.779Z,0
2016-03-24T22:32:34.772Z,0
2016-03-24T22:34:17.278Z,0
2016-03-24T22:35:29.139Z,0
2016-03-24T22:36:15.174Z,0
2016-03-24T22:37:15.301Z,0
2016-03-24T22:43:24.411Z,0
2016-03-24T22:44:22.648Z,0
2016-03-24T22:45:37.792Z,0
2016-03-24T22:46:36.686Z,0
2016-03-24T22:47:36.750Z,0
2016-03-24T22:48:22.580Z,0
2016-03-24T22:49:24.084Z,0
2016-03-24T22:50:26.852Z,0
2016-03-24T22:51:21.682Z,0
2016-03-24T22:52:23.030Z,0
2016-03-24T22:53:22.547Z,0
2016-03-24T22:54:22.410Z,0
2016-03-24T22:55:23.444Z,0
2016-03-24T22:56:36.102Z,0
2016-03-24T22:57:23.496Z,0
2016-03-24T22:58:23.108Z,0
2016-03-24T22:59:23.141Z,0
2016-03-24T23:00:22.316Z,0
2016-03-24T23:01:35.710Z,0
2016-03-24T23:02:23.307Z,0
2016-03-24T23:03:22.309Z,0
2016-03-24T23:04:35.623Z,0
2016-03-24T23:05:24.205Z,0
2016-03-24T23:06:21.817Z,0
2016-03-24T23:07:23.272Z,0
2016-03-24T23:08:23.541Z,0
2016-03-24T23:09:37.168Z,0
2016-03-24T23:10:22.328Z,0
2016-03-24T23:12:22.239Z,0
2016-03-24T23:13:36.961Z,0
2016-03-24T23:14:36.995Z,0
2016-03-24T23:15:22.778Z,0
2016-03-24T23:16:22.781Z,0
2016-03-24T23:17:23.409Z,0
2016-03-24T23:18:35.803Z,0
2016-03-24T23:19:23.180Z,0
2016-03-24T23:20:21.916Z,0
2016-03-24T23:21:22.467Z,0
2016-03-24T23:22:20.719Z,0
2016-03-24T23:23:22.080Z,0
2016-03-24T23:24:22.694Z,0
2016-03-24T23:25:21.540Z,0
2016-03-24T23:26:23.027Z,0
2016-03-24T23:27:22.921Z,0
2016-03-24T23:30:26.085Z,0
2016-03-24T23:31:01.118Z,0
2016-03-24T23:31:55.418Z,0
2016-03-24T23:32:56.874Z,0
2016-03-24T23:33:57.893Z,0
2016-03-24T23:34:56.254Z,0
2016-03-24T23:35:55.569Z,0
2016-03-24T23:37:00.104Z,0
2016-03-24T23:37:57.715Z,0
2016-03-24T23:38:55.686Z,0
2016-03-24T23:39:56.784Z,0
2016-03-24T23:40:54.677Z,0
2016-03-24T23:41:54.837Z,0
2016-03-24T23:43:09.543Z,0
2016-03-24T23:43:55.076Z,0
2016-03-24T23:44:54.845Z,0
2016-03-24T23:45:57.488Z,0
2016-03-24T23:46:56.068Z,0
2016-03-24T23:47:54.603Z,0
2016-03-24T23:48:56.090Z,0
2016-03-24T23:49:55.874Z,0
2016-03-24T23:55:20.684Z,0
2016-03-24T23:57:35.205Z,0
